createdAt,value
2023-08-17T00:03:50.302Z,80.13
2023-08-17T00:08:54.548Z,79.58
2023-08-17T00:13:59.242Z,80.59
2023-08-17T00:19:03.484Z,81.29
2023-08-17T00:24:08.330Z,81.83
2023-08-17T00:29:12.586Z,82.03
2023-08-17T00:34:16.918Z,81.66
2023-08-17T00:39:21.384Z,81.76
2023-08-17T00:44:25.820Z,82.50
2023-08-17T00:49:30.527Z,82.17
2023-08-17T00:54:34.895Z,82.67
2023-08-17T00:59:40.436Z,83.98
2023-08-17T01:04:45.029Z,84.87
2023-08-17T01:09:49.232Z,85.55
2023-08-17T01:14:56.071Z,86.05
2023-08-17T01:20:01.761Z,87.09
2023-08-17T01:25:06.383Z,87.39
2023-08-17T01:30:14.586Z,87.22
2023-08-17T01:35:22.754Z,87.82
2023-08-17T01:40:27.815Z,88.12
2023-08-17T01:45:31.994Z,87.67
2023-08-17T01:50:36.293Z,87.32
2023-08-17T01:55:40.340Z,87.12
2023-08-17T02:00:45.235Z,87.74
2023-08-17T02:05:49.301Z,88.49
2023-08-17T02:10:53.579Z,88.02
2023-08-17T02:15:59.721Z,86.56
2023-08-17T02:21:04.445Z,86.22
2023-08-17T02:26:09.627Z,85.87
2023-08-17T02:31:14.076Z,85.25
2023-08-17T02:36:18.365Z,84.43
2023-08-17T02:41:22.755Z,83.75
2023-08-17T02:46:26.833Z,83.22
2023-08-17T02:51:31.135Z,82.89
2023-08-17T02:56:35.316Z,83.10
2023-08-17T03:01:40.010Z,82.63
2023-08-17T03:06:44.238Z,82.60
2023-08-17T03:11:48.592Z,82.70
2023-08-17T03:16:52.667Z,83.22
2023-08-17T03:21:57.780Z,83.45
2023-08-17T03:27:02.249Z,84.61
2023-08-17T03:32:06.830Z,85.70
2023-08-17T03:37:11.362Z,87.11
2023-08-17T03:42:15.738Z,87.86
2023-08-17T03:47:20.238Z,87.58
2023-08-17T03:52:24.532Z,86.97
2023-08-17T03:57:28.989Z,86.11
2023-08-17T04:02:33.535Z,84.93
2023-08-17T04:07:38.122Z,84.16
2023-08-17T04:12:42.335Z,83.24
2023-08-17T04:17:46.483Z,84.02
2023-08-17T04:22:51.349Z,84.21
2023-08-17T04:27:55.616Z,83.35
2023-08-17T04:33:00.874Z,84.22
2023-08-17T04:38:05.734Z,83.50
2023-08-17T04:43:11.228Z,83.22
2023-08-17T04:48:16.213Z,82.67
2023-08-17T04:53:21.002Z,80.55
2023-08-17T04:58:25.231Z,79.25
2023-08-17T05:03:33.646Z,75.78
2023-08-17T05:08:41.346Z,72.54
2023-08-17T05:13:45.700Z,68.30
2023-08-17T05:18:50.104Z,64.66
2023-08-17T05:23:54.677Z,63.44
2023-08-17T05:28:59.104Z,63.29
2023-08-17T05:34:03.890Z,63.92
2023-08-17T05:39:08.873Z,64.62
2023-08-17T05:44:14.952Z,64.33
2023-08-17T05:49:19.776Z,65.15
2023-08-17T05:54:23.908Z,65.40
2023-08-17T05:59:29.517Z,66.08
2023-08-17T06:04:34.508Z,66.95
2023-08-17T06:09:38.537Z,66.87
2023-08-17T06:14:43.602Z,66.04
2023-08-17T06:19:48.180Z,66.23
2023-08-17T06:24:52.461Z,64.69
2023-08-17T06:29:56.698Z,63.77
2023-08-17T06:35:00.780Z,60.98
2023-08-17T06:40:06.626Z,59.00
2023-08-17T06:45:11.310Z,57.34
2023-08-17T06:50:15.375Z,56.74
2023-08-17T06:55:19.698Z,55.36
2023-08-17T07:00:23.869Z,54.00
2023-08-17T07:05:27.897Z,54.13
2023-08-17T07:10:31.888Z,51.79
2023-08-17T07:15:36.409Z,48.92
2023-08-17T07:20:40.841Z,47.55
2023-08-17T07:25:45.474Z,46.54
2023-08-17T07:30:49.570Z,43.14
2023-08-17T07:35:55.572Z,36.92
2023-08-17T07:40:59.747Z,36.70
2023-08-17T07:46:03.910Z,36.92
2023-08-17T07:51:08.011Z,36.35
2023-08-17T07:56:12.335Z,38.28
2023-08-17T08:01:16.474Z,39.52
2023-08-17T08:06:21.756Z,40.31
2023-08-17T08:11:26.220Z,41.51
2023-08-17T08:16:32.961Z,42.35
2023-08-17T08:21:37.132Z,43.22
2023-08-17T08:26:41.297Z,43.80
2023-08-17T08:31:45.572Z,43.78
2023-08-17T08:36:49.874Z,42.99
2023-08-17T08:41:54.011Z,42.17
2023-08-17T08:46:59.608Z,39.82
2023-08-17T08:52:05.237Z,39.02
2023-08-17T08:57:14.267Z,38.98
2023-08-17T09:02:18.675Z,38.97
2023-08-17T09:07:23.418Z,38.52
2023-08-17T09:12:39.652Z,37.52
2023-08-17T09:17:49.005Z,37.14
2023-08-17T09:22:54.975Z,37.09
2023-08-17T09:27:59.371Z,36.15
2023-08-17T09:33:04.745Z,34.66
2023-08-17T09:38:10.029Z,33.61
2023-08-17T09:43:14.793Z,31.41
2023-08-17T09:48:19.592Z,30.93
2023-08-17T09:53:24.288Z,31.88
2023-08-17T09:58:31.272Z,31.04
2023-08-17T10:03:36.861Z,30.37
2023-08-17T10:08:44.468Z,30.11
2023-08-17T10:13:53.049Z,29.17
2023-08-17T10:19:02.970Z,29.34
2023-08-17T10:24:08.586Z,27.87
2023-08-17T10:29:16.505Z,27.98
2023-08-17T10:34:21.817Z,27.95
2023-08-17T10:39:29.147Z,28.35
2023-08-17T10:44:44.900Z,26.24
2023-08-17T10:49:51.010Z,27.55
2023-08-17T10:54:56.509Z,27.66
2023-08-17T11:00:29.110Z,25.38
2023-08-17T11:05:41.797Z,24.12
2023-08-17T11:10:57.816Z,23.67
2023-08-17T11:16:04.015Z,23.82
2023-08-17T11:21:11.349Z,24.82
2023-08-17T11:26:18.261Z,22.33
2023-08-17T11:31:22.647Z,22.37
2023-08-17T11:36:26.905Z,22.86
2023-08-17T11:41:31.278Z,22.91
2023-08-17T11:46:35.585Z,23.68
2023-08-17T11:51:43.313Z,23.92
2023-08-17T11:56:47.853Z,24.51
2023-08-17T12:01:52.451Z,24.16
2023-08-17T12:06:56.996Z,25.22
2023-08-17T12:12:01.762Z,25.98
2023-08-17T12:17:06.117Z,26.43
2023-08-17T12:22:10.502Z,26.98
2023-08-17T12:27:14.751Z,27.41
2023-08-17T12:32:20.770Z,26.50
2023-08-17T12:37:25.008Z,26.68
2023-08-17T12:42:29.530Z,26.29
2023-08-17T12:47:35.527Z,26.01
2023-08-17T12:52:40.005Z,25.61
2023-08-17T12:57:44.366Z,25.52
2023-08-17T13:02:52.531Z,25.43
2023-08-17T13:07:56.927Z,25.39
2023-08-17T13:13:01.179Z,25.67
2023-08-17T13:18:06.024Z,25.95
2023-08-17T13:23:10.622Z,27.37
2023-08-17T13:28:14.909Z,27.52
2023-08-17T13:33:19.222Z,27.93
2023-08-17T13:38:23.478Z,27.16
2023-08-17T13:43:27.776Z,27.20
2023-08-17T13:48:31.992Z,27.88
2023-08-17T13:53:36.078Z,27.60
2023-08-17T13:58:40.205Z,27.56
2023-08-17T14:03:44.285Z,27.21
2023-08-17T14:08:48.512Z,27.08
2023-08-17T14:13:52.632Z,28.25
2023-08-17T14:18:56.841Z,27.75
2023-08-17T14:24:00.999Z,27.63
2023-08-17T14:29:05.195Z,27.91
2023-08-17T14:34:09.211Z,27.84
2023-08-17T14:39:13.760Z,28.95
2023-08-17T14:44:19.065Z,29.16
2023-08-17T14:49:26.584Z,28.49
2023-08-17T14:54:33.353Z,28.16
2023-08-17T14:59:38.247Z,27.96
2023-08-17T15:04:42.331Z,28.20
2023-08-17T15:09:46.907Z,28.46
2023-08-17T15:14:51.048Z,29.04
2023-08-17T15:19:55.122Z,29.28
2023-08-17T15:24:59.171Z,29.60
2023-08-17T15:30:03.445Z,29.28
2023-08-17T15:35:08.616Z,29.09
2023-08-17T15:40:12.971Z,28.82
2023-08-17T15:45:19.170Z,28.88
2023-08-17T15:50:23.290Z,29.02
2023-08-17T15:55:27.438Z,29.56
2023-08-17T16:00:31.554Z,30.15
2023-08-17T16:05:35.803Z,29.87
2023-08-17T16:10:40.001Z,30.74
2023-08-17T16:15:44.246Z,31.43
2023-08-17T16:20:48.872Z,34.34
2023-08-17T16:34:09.105Z,36.61
2023-08-17T16:39:14.025Z,36.18
2023-08-17T16:44:18.890Z,35.55
2023-08-17T16:49:29.733Z,35.47
2023-08-17T16:54:35.633Z,36.42
2023-08-17T16:59:40.183Z,37.54
2023-08-17T17:04:44.558Z,37.05
2023-08-17T17:09:49.804Z,38.03
2023-08-17T17:14:54.822Z,40.34
2023-08-17T17:19:58.968Z,42.47
2023-08-17T17:25:05.235Z,43.88
2023-08-17T17:30:10.674Z,44.20
2023-08-17T17:35:14.768Z,45.87
2023-08-17T17:40:18.924Z,46.85
2023-08-17T17:46:52.211Z,48.70
2023-08-17T17:51:57.659Z,49.68
2023-08-17T17:57:03.437Z,50.80
2023-08-17T18:02:09.643Z,51.88
2023-08-17T18:07:15.120Z,55.25
2023-08-17T18:12:20.823Z,57.17
2023-08-17T18:17:26.603Z,58.02
2023-08-17T18:22:32.407Z,59.37
2023-08-17T18:27:40.663Z,60.85
2023-08-17T18:32:46.576Z,60.60
2023-08-17T18:37:52.314Z,58.50
2023-08-17T18:42:58.326Z,57.35
2023-08-17T18:48:04.335Z,56.84
2023-08-17T18:53:10.639Z,57.54
2023-08-17T18:58:19.369Z,59.10
2023-08-17T19:03:27.619Z,60.73
2023-08-17T19:08:33.312Z,59.94
2023-08-17T19:13:38.781Z,60.74
2023-08-17T19:18:44.360Z,61.58
2023-08-17T19:23:50.175Z,62.33
2023-08-17T19:28:55.694Z,62.68
2023-08-17T19:34:01.267Z,63.06
2023-08-17T19:39:08.698Z,63.98
2023-08-17T19:44:14.473Z,64.60
2023-08-17T19:49:21.474Z,65.02
2023-08-17T19:54:27.092Z,65.69
2023-08-17T19:59:32.852Z,65.50
2023-08-17T20:04:41.362Z,64.88
2023-08-17T20:09:46.994Z,64.50
2023-08-17T20:14:53.076Z,63.84
2023-08-17T20:19:58.983Z,63.16
2023-08-17T20:25:06.189Z,62.62
2023-08-17T20:30:13.429Z,61.85
2023-08-17T20:35:19.563Z,61.58
2023-08-17T20:40:25.151Z,61.30
2023-08-17T20:45:30.692Z,60.94
2023-08-17T20:50:39.213Z,60.49
2023-08-17T20:55:45.486Z,60.08
2023-08-17T21:00:51.541Z,60.02
2023-08-17T21:06:04.319Z,59.93
2023-08-17T21:11:10.146Z,59.73
2023-08-17T21:16:15.753Z,59.52
2023-08-17T21:21:21.373Z,59.53
2023-08-17T21:26:26.873Z,59.02
2023-08-17T21:31:34.150Z,58.92
2023-08-17T21:36:39.998Z,58.88
2023-08-17T21:41:45.565Z,59.00
2023-08-17T21:46:51.155Z,58.87
2023-08-17T21:51:56.862Z,58.99
2023-08-17T21:57:02.721Z,59.02
2023-08-17T22:02:09.880Z,59.17
2023-08-17T22:07:16.587Z,59.45
2023-08-17T22:12:22.429Z,59.87
2023-08-17T22:17:28.390Z,60.46
2023-08-17T22:22:34.716Z,60.93
2023-08-17T22:27:40.278Z,61.75
2023-08-17T22:32:46.038Z,61.89
2023-08-17T22:37:52.141Z,62.67
2023-08-17T22:42:58.351Z,63.95
2023-08-17T22:48:04.481Z,65.83
2023-08-17T22:53:10.526Z,67.76
2023-08-17T22:58:16.250Z,69.20
2023-08-17T23:03:23.084Z,69.51
2023-08-17T23:08:30.299Z,69.81
2023-08-17T23:13:36.026Z,69.01
2023-08-17T23:18:41.846Z,68.54
2023-08-17T23:23:47.328Z,69.71
2023-08-17T23:28:52.933Z,69.95
2023-08-17T23:33:59.012Z,69.98
2023-08-17T23:39:05.075Z,69.73
2023-08-17T23:44:18.882Z,71.14
2023-08-17T23:49:24.542Z,71.08
2023-08-17T23:54:39.208Z,71.82
2023-08-17T23:59:45.155Z,72.81
